CYGV

Details ICAO CYGV (YGV)
Name HAVRE ST PIERRE
Region Canada
Timezone America/Montreal (UTC-5.0)
Plans Departing 7
Arriving 9
Stats Elevation 124 ft / 38 m (AMSL)
Location 50.281945° -63.611389°
Runways 1
Magnetic Variation 19.311° W
Sunrise 2017-12-15 12:09:17 UTC / 2017-12-15 07:09:17 Local
Sunset 2017-12-15 20:12:52 UTC / 2017-12-15 15:12:52 Local
Advertisement - Login to hide

Runways

ID Width Length Bearing (true) Bearing (mag) Surface Threshold Offset Overrun Length
09 100 ft / 30 m 4,498 ft / 1,371 m 63.21° 82.52° Asphalt 0 ft / 0 m 0 ft / 0 m
27 100 ft / 30 m 4,498 ft / 1,371 m 243.22° 262.53° Asphalt 0 ft / 0 m 0 ft / 0 m

Approach Navaids

Runway Type Ident Frequency Range Bearing (true) Bearing (mag) Slope Elevation
09 Localiser IGV 109.30 MHz 18 nm / 33 km 62.00° 81.31° - 124 ft / 38 m (AMSL)

Map

Weather


0- 5 10 15 20 25 30 35+ Temperature / ° C

Clouds and Precipitation
Forecast for 2017-12-15 12:00 UTC. Updated 2 hours ago

Ground ~20,000 ft ~40,000 ft Winds

METAR

CYGV 150900Z AUTO 26029G37KT 1/4SM +SN BKN014 OVC020 M09/M09 A2911 RMK SLP861

TAF

TAF CYGV 150742Z 1508/1520 25025G35KT 3/4SM -SN BLSN BKN015 OVC030 TEMPO 1511/1520 3SM -SN SCT015 OVC030 BECMG 1511/1512 25030G40KT RMK FCST BASED ON AUTO OBS. NXT FCST BY 151400Z

Frequencies

Recorded 125.95 MHz AWOS
Warning: Do not use this data for real-world aviation or navigation. No guarantee of current accuracy is given.